Pagrindinis puslapis
METAR-TAF:

METAR-TAF

Oro uostai :

Mo i Rana, Norvegija

platuma: 66-22N, ilguma: 014-18E, Aukštis: 7 m

Dabartinis oras

Ataskaita buvo paskelbta 17 minutes, ne 06:50 UTC
Vėjas 1 kt nuo kintamojo kryptimis
Temperatūra -17°C
Drėgmė 84%
Slėgis 998 hPa
Matomumas 10 km arba daugiau
Mažai debesys ne aukštis 3400 ft
Su prošvaistėmis ne aukštis 4600 ft

METAR: ENRA 020650Z VRB01KT 9999 FEW034 BKN046 M17/M19 Q0998

Laikas: 08:07 (07:07 UTC)

Prognozė

Ataskaita buvo paskelbta 2 valandos ir 7 minutes, ne 05:00 UTC
Prognozė galioja nuo 02 metu 06 UTC su 02 metu 15 UTC
Vėjas 2 kt nuo kintamojo kryptimis
Matomumas 10 km arba daugiau
Mažai debesys ne aukštis 4000 ft

TAF: ENRA 020500Z 0206/0215 VRB02KT 9999 FEW040

Orai ataskaitas ir orų prognozės (METAR, TAF).

turimą stotys yra geltonos ir raudonos taškus žemėlapyje.

Perkelti pele per norėdami pamatyti stoties vardą.

Tada spustelėkite, norėdami matyti oro stebėjimo ir prognozės.

Norėdami pakeisti žemėlapį: spustelėkite ant žalios mygtukų su juodo kryžiaus žemyn,; žalią mygtuką su brūkšneliu, jei norite nutolinti; arba žalių rodyklių gretimoms žemėlapius.


METAR-TAF: